Aviation Digital Data Service (ADDS)

Output produced by METARs form (2154 UTC 19 February 2018)
found at http://www.aviationweather.gov/adds/metars/
 
GOGS 192100Z VRB06KT CAVOK 19/17 Q1010
TAF GOGS 191730Z 1918/2018 34008KT CAVOK
       
GOBD 192130Z 35013KT CAVOK 18/15 Q1011 NOSIG
TAF GOBD 191730Z 1918/1924 36015KT CAVOK
       
GOGG 192100Z 28004KT CAVOK 22/17 Q1010
GOGK 192100Z 00000KT 8000 NSC 31/11 Q1007
GOGS 192100Z VRB06KT CAVOK 19/17 Q1010
TAF GOGS 191730Z 1918/2018 34008KT CAVOK
       
GOOD 192100Z 36006KT 8000 NSC 24/13 Q1011
GOOG 192100Z 18004KT 8000 NSC 32/12 Q////
GOOK 192100Z 36008KT CAVOK 28/16 Q1010
GOOY 192100Z 36008KT 8000 NSC 19/17 Q1011 NOSIG
TAF GOOY 191730Z 1918/2024 36010KT CAVOK
       
GOSM 192100Z 00000KT CQAVK 31/09 Q1008
GOSP 192100Z 36002KT CAVOK 30/05 Q1009
GOSS 192100Z 32004KT CAVOK 19/15 Q1010
TAF GOSS 191730Z 1918/2018 36010KT CAVOK
       
GOTK 191800Z 28004KT CAVOK 37/13 Q1006
GOTT 192100Z 28004KT CAVOK 32/09 Q1008
GOOK 192100Z 36008KT CAVOK 28/16 Q1010
GOTK 191800Z 28004KT CAVOK 37/13 Q1006
GOOY 192100Z 36008KT 8000 NSC 19/17 Q1011 NOSIG
TAF GOOY 191730Z 1918/2024 36010KT CAVOK
       
GOSS 192100Z 32004KT CAVOK 19/15 Q1010
TAF GOSS 191730Z 1918/2018 36010KT CAVOK
       
GOTT 192100Z 28004KT CAVOK 32/09 Q1008
GOGG 192100Z 28004KT CAVOK 22/17 Q1010